Time;durP1;ratioP1;P1;durP2;ratioP2;P2;SDS_P1;SDS_P2;PMS_P1;PMS_P2;Temp;Humidity;BMP_temperature;BMP_pressure;BME280_temperature;BME280_humidity;BME280_pressure;Samples;Min_cycle;Max_cycle;Signal;HPM_P1;HPM_P2
2022/03/29 00:01:57;;;;;;;20.77;13.75;;;;;;;9.71;78.68;101587.09;5036507;28;20049;-52
2022/03/29 00:04:25;;;;;;;19.52;13.35;;;;;;;9.77;78.82;101586.97;5038065;28;20507;-54
2022/03/29 00:06:54;;;;;;;22.08;14.43;;;;;;;9.77;78.94;101578.78;5041930;28;20507;-48
2022/03/29 00:09:22;;;;;;;21.95;15.07;;;;;;;9.67;79.36;101578.63;5039974;28;20046;-52
2022/03/29 00:11:50;;;;;;;23.85;15.88;;;;;;;9.55;80.31;101575.13;5044056;28;20496;-50
2022/03/29 00:14:17;;;;;;;21.33;14.93;;;;;;;9.52;80.79;101572.88;5035311;28;20046;-51
2022/03/29 00:16:45;;;;;;;20.02;14.48;;;;;;;9.47;80.97;101581.75;5035725;28;20045;-50
2022/03/29 00:19:13;;;;;;;21.73;16.45;;;;;;;9.53;80.99;101577.25;5034710;28;20099;-52
2022/03/29 00:21:41;;;;;;;23.20;16.50;;;;;;;9.49;81.09;101573.34;5035471;28;20037;-50
2022/03/29 00:24:09;;;;;;;20.30;15.50;;;;;;;9.49;81.30;101576.06;5035078;28;20120;-51
2022/03/29 00:26:36;;;;;;;21.88;16.50;;;;;;;9.48;81.29;101572.53;5035013;28;20069;-49
2022/03/29 00:29:04;;;;;;;21.48;15.45;;;;;;;9.47;81.76;101562.72;5033896;28;20041;-50
2022/03/29 00:31:32;;;;;;;21.88;16.30;;;;;;;9.49;81.36;101565.19;5035188;28;20059;-52
2022/03/29 00:33:59;;;;;;;22.58;16.50;;;;;;;9.49;82.07;101567.91;5034894;28;20094;-50
2022/03/29 00:36:28;;;;;;;25.77;16.95;;;;;;;9.52;81.50;101559.25;5033863;28;20046;-51
2022/03/29 00:38:56;;;;;;;22.98;16.00;;;;;;;9.49;81.57;101554.31;5033476;28;20562;-49
2022/03/29 00:41:23;;;;;;;21.65;15.60;;;;;;;9.35;82.08;101553.75;5034681;28;20038;-49
2022/03/29 00:43:51;;;;;;;26.27;17.77;;;;;;;9.29;83.01;101549.31;5034394;28;20045;-48
2022/03/29 00:46:20;;;;;;;22.33;16.00;;;;;;;9.10;84.04;101545.94;5034657;28;20137;-50
2022/03/29 00:48:48;;;;;;;24.27;16.73;;;;;;;9.13;83.78;101537.28;5034503;28;20051;-50
2022/03/29 00:51:16;;;;;;;26.65;18.00;;;;;;;9.23;83.72;101540.19;5033427;28;20057;-50
2022/03/29 00:53:44;;;;;;;26.50;17.88;;;;;;;9.25;83.22;101532.63;5033471;28;20124;-49
2022/03/29 00:56:12;;;;;;;24.25;17.65;;;;;;;9.28;83.23;101536.75;5033552;28;20033;-48
2022/03/29 00:58:39;;;;;;;21.52;15.55;;;;;;;9.29;83.05;101533.00;5047663;28;20112;-48
2022/03/29 01:01:09;;;;;;;22.80;18.05;;;;;;;9.33;83.17;101525.97;5053043;28;20056;-50
2022/03/29 01:03:41;;;;;;;22.90;17.83;;;;;;;9.30;82.82;101523.75;5054752;28;20094;-53
2022/03/29 01:06:09;;;;;;;25.70;17.50;;;;;;;9.28;83.18;101521.28;5054485;28;20053;-52
2022/03/29 01:08:37;;;;;;;24.45;16.70;;;;;;;9.21;83.65;101531.47;5038866;28;20072;-50
2022/03/29 01:11:12;;;;;;;24.40;18.90;;;;;;;9.22;83.13;101516.81;5035465;28;20053;-51
2022/03/29 01:13:41;;;;;;;22.80;19.00;;;;;;;9.12;84.19;101522.06;5034027;28;20403;-51
2022/03/29 01:18:57;;;;;;;22.75;17.00;;;;;;;8.82;85.99;101519.50;5035029;28;20041;-48
2022/03/29 01:21:32;;;;;;;23.50;17.95;;;;;;;8.82;86.31;101512.19;5042920;28;20476;-47
2022/03/29 01:24:00;;;;;;;27.48;20.83;;;;;;;8.85;86.82;101517.16;5035236;28;20399;-48
2022/03/29 01:26:29;;;;;;;23.00;17.92;;;;;;;8.81;87.09;101515.16;5034014;28;20049;-50
2022/03/29 01:28:59;;;;;;;23.83;19.60;;;;;;;8.90;86.85;101505.56;5034175;28;20075;-50
2022/03/29 01:31:28;;;;;;;27.20;21.25;;;;;;;8.91;86.19;101507.22;5032801;28;20128;-49
2022/03/29 01:33:57;;;;;;;26.20;20.23;;;;;;;8.95;86.31;101505.69;5035488;28;20055;-49
2022/03/29 01:36:25;;;;;;;25.77;21.80;;;;;;;8.99;86.12;101508.72;5053580;28;20132;-48
2022/03/29 01:38:52;;;;;;;24.10;19.48;;;;;;;8.93;86.69;101499.66;5053417;28;20049;-49
2022/03/29 01:41:20;;;;;;;26.55;20.65;;;;;;;8.86;86.09;101502.50;5053725;28;20048;-50
2022/03/29 01:43:47;;;;;;;25.80;20.90;;;;;;;8.84;86.99;101491.03;5051770;28;20127;-48
2022/03/29 01:46:15;;;;;;;23.90;19.88;;;;;;;8.79;87.20;101495.53;5038330;28;20071;-50
2022/03/29 01:48:43;;;;;;;25.92;22.15;;;;;;;8.74;87.04;101493.53;5033709;28;20550;-48
2022/03/29 01:51:12;;;;;;;25.70;22.88;;;;;;;8.73;87.18;101486.44;5031495;28;20067;-49
2022/03/29 01:53:40;;;;;;;31.02;24.38;;;;;;;8.79;87.79;101487.41;5050993;28;20060;-50
2022/03/29 01:56:08;;;;;;;27.52;21.20;;;;;;;8.86;87.66;101488.91;5052442;28;20051;-48
2022/03/29 01:58:36;;;;;;;28.45;22.35;;;;;;;8.86;87.01;101485.38;5053419;28;20399;-50
2022/03/29 02:01:04;;;;;;;28.80;23.92;;;;;;;8.82;87.27;101485.00;5051916;28;20085;-52
2022/03/29 02:03:32;;;;;;;30.55;22.65;;;;;;;8.76;87.15;101485.97;5021562;28;20037;-50
2022/03/29 02:06:00;;;;;;;29.80;23.10;;;;;;;8.75;87.19;101481.59;5034382;28;20057;-49
2022/03/29 02:08:27;;;;;;;29.73;23.20;;;;;;;8.74;87.22;101471.81;5033501;28;20042;-46
2022/03/29 02:10:55;;;;;;;28.15;23.52;;;;;;;8.68;87.56;101472.75;5032253;28;20041;-52
2022/03/29 02:13:23;;;;;;;31.45;24.73;;;;;;;8.59;88.11;101469.59;5033384;28;20047;-49
2022/03/29 02:15:51;;;;;;;27.70;22.15;;;;;;;8.57;88.44;101470.91;5046067;28;20045;-48
2022/03/29 02:18:18;;;;;;;28.23;22.42;;;;;;;8.50;89.57;101463.69;5053303;28;20049;-47
2022/03/29 02:20:47;;;;;;;26.08;22.55;;;;;;;8.55;89.28;101462.16;5053214;28;20047;-48
2022/03/29 02:23:15;;;;;;;31.15;24.92;;;;;;;8.60;88.94;101462.28;5039217;28;20057;-51
2022/03/29 02:25:46;;;;;;;32.30;25.08;;;;;;;8.65;87.86;101454.22;5033136;28;20049;-49
2022/03/29 02:28:14;;;;;;;31.38;24.48;;;;;;;8.69;87.92;101455.41;5032295;28;20049;-50
2022/03/29 02:30:42;;;;;;;31.30;24.48;;;;;;;8.68;88.64;101440.16;5031960;28;20054;-51
2022/03/29 02:33:10;;;;;;;31.52;23.95;;;;;;;8.71;87.20;101450.56;5038660;28;20041;-50
2022/03/29 02:35:39;;;;;;;28.08;24.02;;;;;;;8.65;87.79;101446.06;5051479;28;20048;-51
2022/03/29 02:38:07;;;;;;;27.55;24.45;;;;;;;8.62;87.86;101433.81;5051982;28;20041;-49
2022/03/29 02:40:35;;;;;;;25.63;21.98;;;;;;;8.59;88.20;101437.00;5052798;28;20041;-54
2022/03/29 02:43:02;;;;;;;31.85;24.98;;;;;;;8.64;87.89;101428.13;5037616;28;20048;-50
2022/03/29 02:45:30;;;;;;;29.02;22.85;;;;;;;8.53;88.47;101425.19;5032728;28;20050;-50
2022/03/29 02:47:58;;;;;;;29.35;24.98;;;;;;;8.52;88.99;101420.00;5031962;28;20041;-48
2022/03/29 02:50:26;;;;;;;35.00;25.20;;;;;;;8.47;88.94;101418.00;5033157;28;20488;-44
2022/03/29 02:52:59;;;;;;;30.42;24.70;;;;;;;8.50;87.94;101417.53;5033941;28;20045;-47
2022/03/29 02:55:29;;;;;;;28.17;22.92;;;;;;;8.39;88.86;101421.03;5048474;28;20040;-49
2022/03/29 02:57:58;;;;;;;26.92;22.48;;;;;;;8.32;88.93;101415.78;5052238;28;20044;-48
2022/03/29 03:00:26;;;;;;;30.75;23.60;;;;;;;8.12;90.35;101415.31;5051256;28;20107;-49
2022/03/29 03:02:55;;;;;;;33.42;25.38;;;;;;;8.09;90.77;101411.19;5039464;28;20040;-49
2022/03/29 03:05:26;;;;;;;29.70;25.38;;;;;;;8.08;90.68;101414.97;5046085;28;20071;-48
2022/03/29 03:07:54;;;;;;;30.65;23.42;;;;;;;8.02;91.20;101409.66;5055558;28;20045;-48
2022/03/29 03:10:22;;;;;;;31.05;25.83;;;;;;;8.05;91.03;101403.75;5056699;28;20406;-48
2022/03/29 03:12:50;;;;;;;27.15;23.73;;;;;;;8.16;90.56;101408.34;5042893;28;20051;-49
2022/03/29 03:15:23;;;;;;;28.40;23.02;;;;;;;8.21;89.73;101396.78;5035022;28;20532;-49
2022/03/29 03:17:55;;;;;;;32.65;25.30;;;;;;;8.20;89.25;101395.97;5049519;28;20487;-49
2022/03/29 03:20:24;;;;;;;30.63;24.20;;;;;;;8.24;89.36;101396.28;5039513;28;20500;-48
2022/03/29 03:22:52;;;;;;;31.30;24.60;;;;;;;8.27;89.56;101387.66;5056330;28;20049;-48
2022/03/29 03:25:20;;;;;;;27.15;22.50;;;;;;;8.24;89.56;101391.69;5053586;28;20464;-45
2022/03/29 03:27:48;;;;;;;27.67;22.58;;;;;;;8.29;87.87;101399.13;5056133;28;20503;-46
2022/03/29 03:30:16;;;;;;;29.45;23.45;;;;;;;8.14;89.04;101396.91;5061955;28;20045;-53
2022/03/29 03:32:45;;;;;;;27.98;24.50;;;;;;;7.91;90.49;101392.28;5071012;28;20120;-53
2022/03/29 03:35:18;;;;;;;28.85;24.55;;;;;;;7.74;90.76;101397.59;5056481;28;20055;-47
2022/03/29 03:37:46;;;;;;;29.20;24.13;;;;;;;7.70;91.61;101391.00;5056656;28;20041;-48
2022/03/29 03:40:14;;;;;;;31.45;25.42;;;;;;;7.75;90.97;101385.69;5056096;28;20045;-46
2022/03/29 03:42:42;;;;;;;31.25;25.10;;;;;;;7.65;92.58;101388.19;5036838;28;20053;-48
2022/03/29 03:45:10;;;;;;;36.05;25.10;;;;;;;7.74;91.92;101391.34;5048021;28;20036;-47
2022/03/29 03:47:38;;;;;;;32.45;26.20;;;;;;;7.78;92.19;101385.22;5054326;28;20380;-49
2022/03/29 03:50:08;;;;;;;31.58;26.25;;;;;;;7.91;91.38;101378.72;5056396;28;20049;-50
2022/03/29 03:52:35;;;;;;;36.78;29.00;;;;;;;7.98;91.29;101378.63;5053978;28;20045;-51
2022/03/29 03:55:04;;;;;;;31.63;26.42;;;;;;;7.85;91.05;101376.97;5045515;28;20129;-52
2022/03/29 03:57:32;;;;;;;35.25;28.80;;;;;;;7.85;92.29;101374.25;5034551;28;20049;-52
2022/03/29 04:00:02;;;;;;;38.53;30.60;;;;;;;7.94;91.85;101382.84;5035610;28;20057;-49
2022/03/29 04:02:41;;;;;;;38.60;31.02;;;;;;;7.92;91.15;101366.81;5054957;28;20040;-50
2022/03/29 04:05:13;;;;;;;36.22;27.10;;;;;;;7.84;92.22;101367.16;5050288;28;20029;-49
2022/03/29 04:07:41;;;;;;;36.35;29.05;;;;;;;7.71;92.83;101364.72;5034453;28;20053;-48
2022/03/29 04:10:09;;;;;;;34.67;29.55;;;;;;;7.56;94.21;101365.19;5035579;28;20096;-48
2022/03/29 04:12:37;;;;;;;34.58;29.10;;;;;;;7.56;94.31;101363.28;5050696;28;20087;-50
2022/03/29 04:15:06;;;;;;;39.42;31.40;;;;;;;7.58;94.56;101355.75;5053442;28;20045;-47
2022/03/29 04:17:34;;;;;;;40.72;31.95;;;;;;;7.64;94.22;101356.69;5035336;28;20049;-50
2022/03/29 04:20:02;;;;;;;38.33;31.33;;;;;;;7.49;95.00;101361.75;5035620;28;20046;-54
2022/03/29 04:22:29;;;;;;;37.45;30.77;;;;;;;7.52;94.98;101353.97;5053657;28;20041;-48
2022/03/29 04:24:57;;;;;;;38.67;32.05;;;;;;;7.56;94.98;101351.63;5054965;28;20041;-49
2022/03/29 04:27:25;;;;;;;40.65;32.55;;;;;;;7.62;96.31;101351.47;5039336;28;20045;-48
2022/03/29 04:29:53;;;;;;;37.15;32.22;;;;;;;7.54;95.75;101359.97;5037066;28;20127;-49
2022/03/29 04:32:20;;;;;;;36.17;29.73;;;;;;;7.54;95.70;101345.59;5053323;28;20128;-48
2022/03/29 04:34:48;;;;;;;40.42;33.35;;;;;;;7.50;96.06;101342.50;5053386;28;20411;-49
2022/03/29 04:37:16;;;;;;;35.92;29.40;;;;;;;7.44;96.49;101348.88;5044732;28;20056;-50
2022/03/29 04:39:43;;;;;;;40.80;33.90;;;;;;;7.47;96.28;101337.56;5034914;28;20408;-51
2022/03/29 04:42:11;;;;;;;39.95;33.60;;;;;;;7.51;96.10;101346.06;5054214;28;20140;-54
2022/03/29 04:44:39;;;;;;;41.05;34.50;;;;;;;7.47;96.70;101341.09;5053056;28;20399;-50
2022/03/29 04:47:07;;;;;;;36.38;30.25;;;;;;;7.42;96.38;101345.59;5049665;28;20515;-49
2022/03/29 04:49:34;;;;;;;41.05;32.85;;;;;;;7.44;96.82;101346.19;5045528;28;20400;-51
2022/03/29 04:52:02;;;;;;;36.00;29.90;;;;;;;7.27;97.38;101337.09;5053097;28;20082;-51
2022/03/29 04:54:30;;;;;;;37.25;31.58;;;;;;;7.18;98.65;101340.13;5054671;28;20049;-48
2022/03/29 04:57:00;;;;;;;38.67;31.15;;;;;;;7.25;98.88;101335.41;5052913;28;20045;-48
2022/03/29 04:59:27;;;;;;;35.50;29.00;;;;;;;7.33;98.09;101330.72;5053189;28;20041;-47
2022/03/29 05:01:56;;;;;;;41.67;33.47;;;;;;;7.25;98.49;101335.41;5035304;28;20045;-47
2022/03/29 05:04:24;;;;;;;39.97;32.33;;;;;;;7.33;98.24;101336.13;5034531;28;20042;-50
2022/03/29 05:06:51;;;;;;;38.80;32.50;;;;;;;7.33;97.61;101336.13;5037203;28;20052;-47
2022/03/29 05:09:19;;;;;;;36.13;28.85;;;;;;;7.21;98.52;101328.81;5034412;28;20048;-52
2022/03/29 05:11:46;;;;;;;38.80;32.00;;;;;;;7.19;99.04;101330.94;5034344;28;20057;-53
2022/03/29 05:14:14;;;;;;;33.70;27.92;;;;;;;7.33;99.77;101328.81;5034023;28;20115;-48
2022/03/29 05:16:42;;;;;;;40.55;33.95;;;;;;;7.45;99.09;101318.00;5034378;28;20053;-50
2022/03/29 05:19:09;;;;;;;42.22;36.15;;;;;;;7.58;97.90;101325.09;5053310;28;20052;-52
2022/03/29 05:21:37;;;;;;;44.03;36.13;;;;;;;7.51;98.02;101322.50;5052432;28;20045;-50
2022/03/29 05:24:05;;;;;;;47.58;38.42;;;;;;;7.44;98.22;101325.31;5053861;28;20041;-50
2022/03/29 05:26:33;;;;;;;44.50;36.70;;;;;;;7.35;98.49;101323.19;5049665;28;20128;-51
2022/03/29 05:29:02;;;;;;;45.05;37.85;;;;;;;7.33;98.70;101319.88;5034150;28;20095;-52
2022/03/29 05:31:29;;;;;;;45.42;35.95;;;;;;;7.16;99.07;101320.56;5035150;28;20160;-51
2022/03/29 05:33:57;;;;;;;43.20;34.58;;;;;;;7.04;100.00;101319.72;5042545;28;20442;-52
2022/03/29 05:36:25;;;;;;;43.38;36.33;;;;;;;6.97;100.00;101324.41;5040487;28;20137;-53
2022/03/29 05:38:53;;;;;;;42.60;34.60;;;;;;;6.93;100.00;101323.22;5050380;28;20051;-49
2022/03/29 05:41:21;;;;;;;39.53;33.50;;;;;;;6.90;100.00;101331.78;5034908;28;20039;-49
2022/03/29 05:43:49;;;;;;;43.97;35.80;;;;;;;7.08;100.00;101326.31;5033241;28;20056;-50
2022/03/29 05:49:04;;;;;;;41.08;34.83;;;;;;;7.20;100.00;101326.34;5053313;28;20514;-51
2022/03/29 05:51:32;;;;;;;43.60;35.20;;;;;;;7.08;100.00;101323.63;5051554;28;20116;-52
2022/03/29 05:54:01;;;;;;;42.70;35.20;;;;;;;6.98;100.00;101323.34;5053432;28;20087;-49
2022/03/29 05:56:29;;;;;;;41.63;34.78;;;;;;;6.93;100.00;101321.34;3990433;28;10000711;-50
2022/03/29 05:58:56;;;;;;;40.63;33.58;;;;;;;7.01;100.00;101318.28;5031172;28;20134;-50
2022/03/29 06:01:24;;;;;;;44.55;33.97;;;;;;;7.09;100.00;101319.00;5048548;28;20045;-49
2022/03/29 06:03:52;;;;;;;38.47;31.70;;;;;;;7.23;100.00;101315.03;5049475;28;20048;-49
2022/03/29 06:06:20;;;;;;;39.67;33.45;;;;;;;7.30;100.00;101309.50;5040256;28;20519;-48
2022/03/29 06:08:48;;;;;;;38.70;30.95;;;;;;;7.17;100.00;101316.81;5028751;28;20048;-50
2022/03/29 06:11:16;;;;;;;41.88;32.70;;;;;;;7.11;100.00;101317.72;5047155;28;20063;-51
2022/03/29 06:13:44;;;;;;;40.33;34.53;;;;;;;6.99;100.00;101314.97;5052716;28;20380;-48
2022/03/29 06:16:11;;;;;;;40.72;33.85;;;;;;;6.94;100.00;101314.03;5051654;28;20411;-48
2022/03/29 06:18:39;;;;;;;36.10;30.30;;;;;;;7.01;100.00;101317.47;5051873;28;20059;-48
2022/03/29 06:21:07;;;;;;;38.13;30.17;;;;;;;7.03;100.00;101315.34;5031672;28;20045;-49
2022/03/29 06:23:35;;;;;;;37.72;30.50;;;;;;;7.09;100.00;101313.59;5033302;28;20050;-46
2022/03/29 06:26:02;;;;;;;35.17;27.58;;;;;;;7.21;100.00;101314.44;5041831;28;20049;-47
2022/03/29 06:28:30;;;;;;;37.13;30.33;;;;;;;7.31;100.00;101311.16;5052911;28;20052;-45
2022/03/29 06:30:58;;;;;;;34.42;27.60;;;;;;;7.23;100.00;101315.84;5050650;28;20119;-46
2022/03/29 06:33:26;;;;;;;31.50;25.48;;;;;;;7.33;100.00;101309.84;5052811;28;20064;-46
2022/03/29 06:35:53;;;;;;;33.00;27.08;;;;;;;7.47;100.00;101305.84;5040376;28;20591;-46
2022/03/29 06:38:22;;;;;;;32.15;26.02;;;;;;;7.57;99.89;101309.88;5055761;28;20049;-46
2022/03/29 06:40:50;;;;;;;33.35;28.38;;;;;;;7.46;98.59;101314.25;5057296;28;20037;-48
2022/03/29 06:43:18;;;;;;;35.00;28.73;;;;;;;7.49;98.96;101307.53;5056414;28;20041;-55
2022/03/29 06:45:46;;;;;;;30.30;24.55;;;;;;;7.51;98.60;101308.94;5055864;28;20034;-55
2022/03/29 06:48:14;;;;;;;37.65;30.70;;;;;;;7.47;98.40;101311.28;5064516;28;20056;-52
2022/03/29 06:50:41;;;;;;;36.00;29.65;;;;;;;7.40;98.63;101315.16;5056958;28;20048;-53
2022/03/29 06:53:09;;;;;;;36.13;28.67;;;;;;;7.22;98.70;101321.53;5062975;28;20037;-55
2022/03/29 06:55:37;;;;;;;32.67;26.95;;;;;;;7.11;100.00;101323.13;5065160;28;20059;-52
2022/03/29 06:58:04;;;;;;;34.08;29.33;;;;;;;6.82;100.00;101322.94;5058170;28;20048;-50
2022/03/29 07:00:32;;;;;;;36.92;30.50;;;;;;;6.60;100.00;101321.81;5057035;28;20053;-51
2022/03/29 07:03:00;;;;;;;36.00;29.50;;;;;;;6.76;100.00;101320.34;5054324;28;20063;-51
2022/03/29 07:05:28;;;;;;;38.65;28.95;;;;;;;6.92;100.00;101314.25;5056417;28;20057;-47
2022/03/29 07:07:56;;;;;;;36.15;29.45;;;;;;;6.81;100.00;101317.78;5052854;28;20131;-49
2022/03/29 07:13:10;;;;;;;35.47;28.92;;;;;;;6.77;100.00;101322.00;5056869;28;20079;-47
2022/03/29 07:15:38;;;;;;;34.72;28.20;;;;;;;6.73;100.00;101324.31;5047011;28;20048;-45
2022/03/29 07:18:06;;;;;;;35.92;30.30;;;;;;;6.64;100.00;101316.75;5054714;28;20407;-46
2022/03/29 07:20:34;;;;;;;37.08;30.05;;;;;;;6.63;100.00;101321.34;5054841;28;20115;-45
2022/03/29 07:23:01;;;;;;;40.92;31.95;;;;;;;6.61;100.00;101320.75;5056294;28;20392;-46
2022/03/29 07:25:32;;;;;;;36.83;30.98;;;;;;;6.67;100.00;101314.44;5047410;28;20411;-51
2022/03/29 07:28:00;;;;;;;35.08;26.70;;;;;;;6.71;100.00;101321.03;5050836;28;20056;-46
2022/03/29 07:30:30;;;;;;;35.95;27.17;;;;;;;6.75;100.00;101319.50;5055958;28;20045;-47
2022/03/29 07:32:59;;;;;;;39.65;27.08;;;;;;;6.85;100.00;101318.94;5055966;28;20496;-45
2022/03/29 07:35:29;;;;;;;36.90;29.75;;;;;;;7.00;100.00;101315.84;5052743;28;20434;-49
2022/03/29 07:37:57;;;;;;;40.20;30.63;;;;;;;7.10;100.00;101320.69;5043008;28;20045;-50
2022/03/29 07:40:27;;;;;;;42.22;30.63;;;;;;;7.23;100.00;101315.84;5034925;28;20050;-51
2022/03/29 07:42:55;;;;;;;40.63;32.78;;;;;;;7.32;100.00;101320.94;5035817;28;20475;-48
2022/03/29 07:45:23;;;;;;;41.92;33.15;;;;;;;7.23;100.00;101315.03;5055371;28;20051;-47
2022/03/29 07:47:56;;;;;;;42.80;33.40;;;;;;;7.14;100.00;101311.81;5042590;28;20068;-49
2022/03/29 07:50:44;;;;;;;42.83;33.13;;;;;;;7.12;100.00;101308.56;5035489;28;20132;-48
2022/03/29 07:53:11;;;;;;;43.33;34.20;;;;;;;7.16;100.00;101315.13;5035437;28;20488;-45
2022/03/29 07:55:40;;;;;;;42.20;33.17;;;;;;;7.08;100.00;101309.25;5035899;28;20381;-45
2022/03/29 07:58:16;;;;;;;45.65;33.10;;;;;;;7.04;100.00;101301.56;5035611;28;20403;-46
2022/03/29 08:00:44;;;;;;;39.67;30.40;;;;;;;7.03;100.00;101301.81;5035363;28;20144;-43
2022/03/29 08:03:15;;;;;;;36.45;28.30;;;;;;;7.20;100.00;101315.50;5034197;28;20492;-45
2022/03/29 08:05:45;;;;;;;39.88;31.80;;;;;;;7.32;100.00;101312.81;5034632;28;20504;-50
2022/03/29 08:08:16;;;;;;;40.65;32.63;;;;;;;7.31;100.00;101311.16;5053765;28;20466;-49
2022/03/29 08:10:45;;;;;;;40.80;31.90;;;;;;;7.38;100.00;101322.69;5055410;28;20037;-48
2022/03/29 08:13:17;;;;;;;41.50;32.97;;;;;;;7.33;100.00;101317.16;5054326;28;20049;-47
2022/03/29 08:15:46;;;;;;;38.38;29.58;;;;;;;7.37;100.00;101318.34;5050360;28;20044;-45
2022/03/29 08:18:15;;;;;;;39.58;28.95;;;;;;;7.49;100.00;101318.38;5035278;28;20116;-48
2022/03/29 08:20:43;;;;;;;40.85;31.23;;;;;;;7.50;100.00;101323.53;5018024;28;20416;-48
2022/03/29 08:23:12;;;;;;;39.50;29.83;;;;;;;7.40;100.00;101320.59;5035302;28;20080;-46
2022/03/29 08:25:42;;;;;;;38.92;30.25;;;;;;;7.30;100.00;101321.16;5035947;28;20125;-46
2022/03/29 08:28:11;;;;;;;40.35;30.55;;;;;;;7.16;100.00;101311.59;5034232;28;20041;-46
2022/03/29 08:30:38;;;;;;;37.47;30.05;;;;;;;7.19;100.00;101314.69;5035193;28;20380;-47
2022/03/29 08:33:06;;;;;;;39.70;30.98;;;;;;;7.25;100.00;101300.19;5035226;28;20107;-45
2022/03/29 08:35:37;;;;;;;37.05;29.67;;;;;;;7.38;100.00;101301.00;5039970;28;20083;-46
2022/03/29 08:38:05;;;;;;;40.22;30.83;;;;;;;7.31;100.00;101297.59;5054415;28;20072;-48
2022/03/29 08:40:57;;;;;;;38.95;29.48;;;;;;;7.30;100.00;101298.66;5054515;28;20098;-44
2022/03/29 08:43:30;;;;;;;39.85;31.30;;;;;;;7.23;100.00;101296.88;5053324;28;20053;-49
2022/03/29 08:45:59;;;;;;;39.47;30.05;;;;;;;7.14;100.00;101295.56;5051615;28;20041;-44
2022/03/29 08:48:28;;;;;;;37.97;29.77;;;;;;;7.08;100.00;101301.13;5054726;28;20136;-47
2022/03/29 08:50:59;;;;;;;45.45;33.20;;;;;;;7.15;100.00;101299.94;5054507;28;20091;-45
2022/03/29 08:53:48;;;;;;;38.38;28.50;;;;;;;7.32;100.00;101299.25;5039677;28;20376;-47
2022/03/29 08:56:17;;;;;;;37.50;29.95;;;;;;;7.47;100.00;101299.63;5039650;28;20037;-45
2022/03/29 08:58:45;;;;;;;40.00;30.27;;;;;;;7.51;100.00;101295.38;5048794;28;20136;-47
2022/03/29 09:01:12;;;;;;;37.15;30.58;;;;;;;7.50;100.00;101299.13;5039556;28;20132;-46
2022/03/29 09:03:40;;;;;;;38.75;29.67;;;;;;;7.46;100.00;101298.78;5034621;28;20038;-44
2022/03/29 09:06:10;;;;;;;37.90;28.77;;;;;;;7.41;100.00;101300.56;5035550;28;20045;-47
2022/03/29 09:08:45;;;;;;;37.70;29.00;;;;;;;7.42;100.00;101307.63;5038923;28;20037;-49
2022/03/29 09:11:14;;;;;;;38.90;29.90;;;;;;;7.49;100.00;101308.34;5033177;28;20056;-46
2022/03/29 09:13:42;;;;;;;39.97;30.08;;;;;;;7.51;100.00;101306.22;5032732;28;20370;-49
2022/03/29 09:16:29;;;;;;;39.20;28.95;;;;;;;7.59;100.00;101310.47;5034816;28;20037;-48
2022/03/29 09:18:58;;;;;;;30.50;24.25;;;;;;;7.69;100.00;101314.22;5033840;28;20045;-46
2022/03/29 09:21:27;;;;;;;35.60;27.75;;;;;;;7.77;100.00;101312.22;5034047;28;20108;-46
2022/03/29 09:24:08;;;;;;;33.33;26.13;;;;;;;7.69;100.00;101300.66;5032865;28;20492;-48
2022/03/29 09:26:42;;;;;;;37.88;29.52;;;;;;;7.59;100.00;101303.16;5035178;28;20415;-47
2022/03/29 09:29:20;;;;;;;36.05;27.75;;;;;;;7.56;100.00;101308.22;5052524;28;20040;-48
2022/03/29 09:32:06;;;;;;;39.08;30.02;;;;;;;7.52;100.00;101309.75;5052912;28;20490;-47
2022/03/29 09:34:35;;;;;;;37.38;29.15;;;;;;;7.50;100.00;101307.25;5053917;28;20090;-48
2022/03/29 09:37:04;;;;;;;38.75;29.40;;;;;;;7.52;100.00;101297.00;5052062;28;20149;-47
2022/03/29 09:39:44;;;;;;;36.60;28.55;;;;;;;7.53;100.00;101301.41;5052546;28;20040;-53
2022/03/29 09:42:19;;;;;;;33.55;26.40;;;;;;;7.52;100.00;101296.19;5052853;28;20045;-49
2022/03/29 09:44:51;;;;;;;43.35;31.42;;;;;;;7.44;100.00;101294.66;5053600;28;20128;-52
2022/03/29 09:47:20;;;;;;;43.72;32.97;;;;;;;7.32;100.00;101296.56;5052221;28;20049;-47
2022/03/29 09:49:54;;;;;;;45.03;33.67;;;;;;;7.25;100.00;101286.63;5032701;28;20393;-49
2022/03/29 09:52:30;;;;;;;49.55;35.90;;;;;;;7.30;100.00;101288.63;5033597;28;20427;-49
2022/03/29 09:55:07;;;;;;;47.50;35.88;;;;;;;7.31;100.00;101295.72;5033807;28;20124;-48
2022/03/29 09:57:39;;;;;;;49.17;37.58;;;;;;;7.40;100.00;101294.28;5016192;28;20038;-51
2022/03/29 10:00:08;;;;;;;49.50;37.28;;;;;;;7.47;100.00;101277.91;5038105;28;20051;-48
2022/03/29 10:02:44;;;;;;;49.13;37.08;;;;;;;7.53;100.00;101287.84;5048825;28;20061;-50
2022/03/29 10:05:15;;;;;;;50.78;37.60;;;;;;;7.58;100.00;101284.41;5034545;28;20045;-48
2022/03/29 10:07:44;;;;;;;51.70;37.40;;;;;;;7.42;100.00;101280.53;5040615;28;20040;-52
2022/03/29 10:10:12;;;;;;;47.67;36.70;;;;;;;7.42;100.00;101275.09;5052948;28;20077;-48
2022/03/29 10:12:40;;;;;;;46.50;35.13;;;;;;;7.46;100.00;101271.69;5052914;28;20409;-48
2022/03/29 10:15:28;;;;;;;44.67;34.42;;;;;;;7.56;100.00;101272.97;5045890;28;20029;-51
2022/03/29 10:17:59;;;;;;;48.40;35.92;;;;;;;7.60;100.00;101272.28;5033648;28;20045;-49
2022/03/29 10:20:27;;;;;;;50.53;38.00;;;;;;;7.61;100.00;101263.06;5034010;28;20046;-48
2022/03/29 10:22:57;;;;;;;46.97;34.90;;;;;;;7.62;100.00;101267.41;5052509;28;20052;-45
2022/03/29 10:25:26;;;;;;;45.60;35.78;;;;;;;7.71;100.00;101261.63;5050304;28;20454;-49
2022/03/29 10:27:58;;;;;;;44.13;33.88;;;;;;;7.73;100.00;101264.94;5042502;28;20507;-48
2022/03/29 10:30:37;;;;;;;42.92;33.55;;;;;;;7.81;99.85;101256.44;5031894;28;20053;-47
2022/03/29 10:33:30;;;;;;;42.70;33.63;;;;;;;7.74;100.00;101256.53;5049187;28;20045;-49
2022/03/29 10:36:12;;;;;;;37.95;28.83;;;;;;;7.65;100.00;101253.41;5049976;28;20415;-47
2022/03/29 10:38:49;;;;;;;41.92;31.73;;;;;;;7.74;100.00;101251.13;5050157;28;20045;-49
2022/03/29 10:41:26;;;;;;;44.28;32.63;;;;;;;7.78;98.81;101248.78;5052783;28;20116;-48
2022/03/29 10:44:14;;;;;;;45.60;34.58;;;;;;;7.76;99.25;101249.00;5052645;28;20051;-48
2022/03/29 10:46:49;;;;;;;46.65;35.17;;;;;;;7.83;99.38;101254.31;5049790;28;20036;-49
2022/03/29 10:49:23;;;;;;;40.80;30.63;;;;;;;7.85;98.73;101249.47;5043008;28;20049;-47
2022/03/29 10:51:57;;;;;;;35.95;30.00;;;;;;;7.89;98.76;101242.50;5052784;28;20480;-50
2022/03/29 10:54:37;;;;;;;59.45;43.22;;;;;;;7.96;98.13;101251.34;5051125;28;20041;-47
2022/03/29 10:57:07;;;;;;;45.35;33.67;;;;;;;7.99;97.69;101244.59;5044565;28;20041;-48
2022/03/29 10:59:36;;;;;;;45.85;33.10;;;;;;;7.97;97.89;101242.13;5032707;28;20045;-49
2022/03/29 11:02:09;;;;;;;43.28;34.75;;;;;;;8.00;97.27;101238.91;5029930;28;20053;-48
2022/03/29 11:04:57;;;;;;;37.83;30.23;;;;;;;8.06;96.17;101234.44;5051011;28;20072;-48
2022/03/29 11:07:25;;;;;;;41.03;31.05;;;;;;;8.16;95.51;101234.63;5044723;28;20053;-50
2022/03/29 11:10:09;;;;;;;33.40;27.05;;;;;;;8.16;96.35;101228.38;5044216;28;20040;-49
2022/03/29 11:12:38;;;;;;;41.60;28.40;;;;;;;8.24;94.68;101227.97;5031643;28;20045;-48
2022/03/29 11:15:24;;;;;;;35.22;28.95;;;;;;;8.32;93.39;101220.28;5032516;28;20072;-49
2022/03/29 11:17:53;;;;;;;35.13;27.42;;;;;;;8.35;93.68;101218.97;5033655;28;20049;-50
2022/03/29 11:20:35;;;;;;;38.80;30.23;;;;;;;8.38;93.37;101207.63;5035488;28;20047;-49
2022/03/29 11:23:08;;;;;;;39.17;29.83;;;;;;;8.41;92.34;101207.16;5048074;28;20041;-50
2022/03/29 11:25:43;;;;;;;54.70;31.33;;;;;;;8.40;92.25;101208.22;5055994;28;20120;-49
2022/03/29 11:28:14;;;;;;;39.67;28.95;;;;;;;8.44;91.70;101203.97;5036391;28;20507;-50
2022/03/29 11:30:43;;;;;;;36.17;27.02;;;;;;;8.47;90.67;101202.66;5044370;28;20037;-50
2022/03/29 11:33:12;;;;;;;41.20;29.05;;;;;;;8.48;90.01;101191.53;5055906;28;20053;-49
2022/03/29 11:35:40;;;;;;;37.78;28.02;;;;;;;8.58;90.37;101185.44;5056159;28;20043;-48